Terminal Aerodrome Forecast
Issued by NWS Upton, NY

Home | Current Version | Previous Version | Text Only | Print | Product List | Glossary On
Versions: 1 2 3 4 5 6 7 8 9 10 11 12 13 14 15 16 17 18 19 20 21 22 23 24 25 26 27 28 29 30 31 32 33
412
FTUS41 KOKX 061139
TAFISP
TAF
KISP 061139Z 0612/0712 VRB03KT 6SM BR SCT250
     FM061600 21008KT P6SM BKN250
     FM070300 VRB03KT P6SM FEW250=

USA.gov is the U.S. government's official web portal to all federal, state and local government web resources and services.